sensor_id;sensor_type;location;lat;lon;timestamp;P1;durP1;ratioP1;P2;durP2;ratioP2
76039;SDS011;64736;50.462;4.850;2023-04-06T00:01:38;20.70;;;11.60;;
76039;SDS011;64736;50.462;4.850;2023-04-06T00:04:05;19.95;;;12.05;;
76039;SDS011;64736;50.462;4.850;2023-04-06T00:06:31;20.95;;;11.80;;
76039;SDS011;64736;50.462;4.850;2023-04-06T00:08:57;17.55;;;11.65;;
76039;SDS011;64736;50.462;4.850;2023-04-06T00:11:23;19.38;;;11.70;;
76039;SDS011;64736;50.462;4.850;2023-04-06T00:13:48;18.40;;;11.43;;
76039;SDS011;64736;50.462;4.850;2023-04-06T00:16:14;18.20;;;11.20;;
76039;SDS011;64736;50.462;4.850;2023-04-06T00:18:40;18.05;;;11.80;;
76039;SDS011;64736;50.462;4.850;2023-04-06T00:21:06;17.48;;;11.05;;
76039;SDS011;64736;50.462;4.850;2023-04-06T00:23:32;17.10;;;11.23;;
76039;SDS011;64736;50.462;4.850;2023-04-06T00:25:58;17.15;;;10.95;;
76039;SDS011;64736;50.462;4.850;2023-04-06T00:28:24;17.85;;;10.98;;
76039;SDS011;64736;50.462;4.850;2023-04-06T00:30:55;17.30;;;11.57;;
76039;SDS011;64736;50.462;4.850;2023-04-06T00:33:21;17.10;;;10.38;;
76039;SDS011;64736;50.462;4.850;2023-04-06T00:35:47;16.75;;;10.65;;
76039;SDS011;64736;50.462;4.850;2023-04-06T00:38:14;17.38;;;11.70;;
76039;SDS011;64736;50.462;4.850;2023-04-06T00:40:40;18.15;;;11.13;;
76039;SDS011;64736;50.462;4.850;2023-04-06T00:43:06;18.00;;;11.25;;
76039;SDS011;64736;50.462;4.850;2023-04-06T00:45:34;16.77;;;11.35;;
76039;SDS011;64736;50.462;4.850;2023-04-06T00:48:00;16.02;;;10.80;;
76039;SDS011;64736;50.462;4.850;2023-04-06T00:50:27;16.15;;;10.63;;
76039;SDS011;64736;50.462;4.850;2023-04-06T00:52:54;16.38;;;10.73;;
76039;SDS011;64736;50.462;4.850;2023-04-06T00:55:20;18.77;;;11.38;;
76039;SDS011;64736;50.462;4.850;2023-04-06T00:57:46;16.02;;;9.88;;
76039;SDS011;64736;50.462;4.850;2023-04-06T01:00:12;15.68;;;10.48;;
76039;SDS011;64736;50.462;4.850;2023-04-06T01:02:39;17.38;;;11.30;;
76039;SDS011;64736;50.462;4.850;2023-04-06T01:05:05;14.68;;;10.10;;
76039;SDS011;64736;50.462;4.850;2023-04-06T01:07:32;16.48;;;10.15;;
76039;SDS011;64736;50.462;4.850;2023-04-06T01:09:57;16.65;;;11.05;;
76039;SDS011;64736;50.462;4.850;2023-04-06T01:12:24;18.17;;;11.38;;
76039;SDS011;64736;50.462;4.850;2023-04-06T01:14:50;17.08;;;10.77;;
76039;SDS011;64736;50.462;4.850;2023-04-06T01:17:16;18.60;;;11.73;;
76039;SDS011;64736;50.462;4.850;2023-04-06T01:19:42;16.25;;;9.85;;
76039;SDS011;64736;50.462;4.850;2023-04-06T01:22:07;17.60;;;10.57;;
76039;SDS011;64736;50.462;4.850;2023-04-06T01:24:33;17.35;;;10.57;;
76039;SDS011;64736;50.462;4.850;2023-04-06T01:26:59;18.83;;;11.95;;
76039;SDS011;64736;50.462;4.850;2023-04-06T01:29:26;20.85;;;11.27;;
76039;SDS011;64736;50.462;4.850;2023-04-06T01:31:52;19.80;;;11.23;;
76039;SDS011;64736;50.462;4.850;2023-04-06T01:34:17;18.38;;;12.25;;
76039;SDS011;64736;50.462;4.850;2023-04-06T01:36:43;15.65;;;10.35;;
76039;SDS011;64736;50.462;4.850;2023-04-06T01:39:09;15.90;;;10.55;;
76039;SDS011;64736;50.462;4.850;2023-04-06T01:41:35;21.85;;;11.45;;
76039;SDS011;64736;50.462;4.850;2023-04-06T01:44:01;16.17;;;10.50;;
76039;SDS011;64736;50.462;4.850;2023-04-06T01:46:27;16.17;;;9.98;;
76039;SDS011;64736;50.462;4.850;2023-04-06T01:48:53;16.88;;;10.82;;
76039;SDS011;64736;50.462;4.850;2023-04-06T01:51:19;15.52;;;10.93;;
76039;SDS011;64736;50.462;4.850;2023-04-06T01:53:45;15.40;;;10.25;;
76039;SDS011;64736;50.462;4.850;2023-04-06T01:56:11;16.75;;;10.45;;
76039;SDS011;64736;50.462;4.850;2023-04-06T01:58:37;16.02;;;10.18;;
76039;SDS011;64736;50.462;4.850;2023-04-06T02:01:02;17.45;;;10.75;;
76039;SDS011;64736;50.462;4.850;2023-04-06T02:03:28;17.88;;;11.45;;
76039;SDS011;64736;50.462;4.850;2023-04-06T02:05:55;18.05;;;11.27;;
76039;SDS011;64736;50.462;4.850;2023-04-06T02:08:21;18.17;;;11.57;;
76039;SDS011;64736;50.462;4.850;2023-04-06T02:10:47;19.30;;;12.38;;
76039;SDS011;64736;50.462;4.850;2023-04-06T02:13:13;19.88;;;10.70;;
76039;SDS011;64736;50.462;4.850;2023-04-06T02:15:38;18.63;;;11.55;;
76039;SDS011;64736;50.462;4.850;2023-04-06T02:18:04;15.55;;;10.65;;
76039;SDS011;64736;50.462;4.850;2023-04-06T02:20:30;18.27;;;11.02;;
76039;SDS011;64736;50.462;4.850;2023-04-06T02:22:56;18.77;;;11.05;;
76039;SDS011;64736;50.462;4.850;2023-04-06T02:25:24;18.90;;;11.43;;
76039;SDS011;64736;50.462;4.850;2023-04-06T02:27:50;17.67;;;11.00;;
76039;SDS011;64736;50.462;4.850;2023-04-06T02:30:15;16.70;;;10.57;;
76039;SDS011;64736;50.462;4.850;2023-04-06T02:32:41;16.17;;;10.90;;
76039;SDS011;64736;50.462;4.850;2023-04-06T02:35:07;18.23;;;11.35;;
76039;SDS011;64736;50.462;4.850;2023-04-06T02:37:33;17.25;;;11.98;;
76039;SDS011;64736;50.462;4.850;2023-04-06T02:39:59;19.13;;;11.60;;
76039;SDS011;64736;50.462;4.850;2023-04-06T02:42:25;15.40;;;10.15;;
76039;SDS011;64736;50.462;4.850;2023-04-06T02:44:50;19.38;;;10.38;;
76039;SDS011;64736;50.462;4.850;2023-04-06T02:47:16;20.52;;;11.88;;
76039;SDS011;64736;50.462;4.850;2023-04-06T02:49:42;15.95;;;10.60;;
76039;SDS011;64736;50.462;4.850;2023-04-06T02:52:08;18.42;;;11.38;;
76039;SDS011;64736;50.462;4.850;2023-04-06T02:54:33;18.80;;;10.50;;
76039;SDS011;64736;50.462;4.850;2023-04-06T02:56:59;16.45;;;10.75;;
76039;SDS011;64736;50.462;4.850;2023-04-06T02:59:25;16.88;;;9.77;;
76039;SDS011;64736;50.462;4.850;2023-04-06T03:01:51;17.23;;;10.82;;
76039;SDS011;64736;50.462;4.850;2023-04-06T03:04:17;16.58;;;9.70;;
76039;SDS011;64736;50.462;4.850;2023-04-06T03:06:42;16.23;;;10.05;;
76039;SDS011;64736;50.462;4.850;2023-04-06T03:09:08;15.50;;;9.57;;
76039;SDS011;64736;50.462;4.850;2023-04-06T03:11:34;16.15;;;9.93;;
76039;SDS011;64736;50.462;4.850;2023-04-06T03:14:00;15.88;;;9.55;;
76039;SDS011;64736;50.462;4.850;2023-04-06T03:16:25;14.90;;;9.82;;
76039;SDS011;64736;50.462;4.850;2023-04-06T03:18:51;15.82;;;9.40;;
76039;SDS011;64736;50.462;4.850;2023-04-06T03:21:17;17.00;;;9.98;;
76039;SDS011;64736;50.462;4.850;2023-04-06T03:23:44;15.40;;;9.60;;
76039;SDS011;64736;50.462;4.850;2023-04-06T03:26:10;15.93;;;10.23;;
76039;SDS011;64736;50.462;4.850;2023-04-06T03:28:36;14.82;;;9.00;;
76039;SDS011;64736;50.462;4.850;2023-04-06T03:31:02;17.55;;;10.05;;
76039;SDS011;64736;50.462;4.850;2023-04-06T03:33:28;16.83;;;9.18;;
76039;SDS011;64736;50.462;4.850;2023-04-06T03:35:54;13.60;;;9.20;;
76039;SDS011;64736;50.462;4.850;2023-04-06T03:38:20;15.88;;;9.98;;
76039;SDS011;64736;50.462;4.850;2023-04-06T03:40:46;15.85;;;9.57;;
76039;SDS011;64736;50.462;4.850;2023-04-06T03:43:11;13.13;;;9.18;;
76039;SDS011;64736;50.462;4.850;2023-04-06T03:45:37;14.18;;;9.30;;
76039;SDS011;64736;50.462;4.850;2023-04-06T03:48:03;17.08;;;10.93;;
76039;SDS011;64736;50.462;4.850;2023-04-06T03:50:30;14.55;;;9.02;;
76039;SDS011;64736;50.462;4.850;2023-04-06T03:52:56;16.30;;;9.68;;
76039;SDS011;64736;50.462;4.850;2023-04-06T03:55:21;17.15;;;10.00;;
76039;SDS011;64736;50.462;4.850;2023-04-06T03:57:47;14.90;;;8.65;;
76039;SDS011;64736;50.462;4.850;2023-04-06T04:00:13;12.63;;;8.88;;
76039;SDS011;64736;50.462;4.850;2023-04-06T04:02:39;14.20;;;8.48;;
76039;SDS011;64736;50.462;4.850;2023-04-06T04:05:05;12.48;;;7.93;;
76039;SDS011;64736;50.462;4.850;2023-04-06T04:07:32;14.98;;;8.43;;
76039;SDS011;64736;50.462;4.850;2023-04-06T04:09:57;12.48;;;7.65;;
76039;SDS011;64736;50.462;4.850;2023-04-06T04:12:23;13.40;;;7.97;;
76039;SDS011;64736;50.462;4.850;2023-04-06T04:14:49;16.17;;;8.23;;
76039;SDS011;64736;50.462;4.850;2023-04-06T04:17:15;14.05;;;8.70;;
76039;SDS011;64736;50.462;4.850;2023-04-06T04:19:41;13.27;;;8.07;;
76039;SDS011;64736;50.462;4.850;2023-04-06T04:22:06;14.93;;;7.80;;
76039;SDS011;64736;50.462;4.850;2023-04-06T04:24:32;11.60;;;7.40;;
76039;SDS011;64736;50.462;4.850;2023-04-06T04:26:58;15.05;;;7.68;;
76039;SDS011;64736;50.462;4.850;2023-04-06T04:29:26;13.18;;;7.88;;
76039;SDS011;64736;50.462;4.850;2023-04-06T04:31:52;15.05;;;8.00;;
76039;SDS011;64736;50.462;4.850;2023-04-06T04:34:18;14.68;;;8.23;;
76039;SDS011;64736;50.462;4.850;2023-04-06T04:36:49;13.43;;;7.60;;
76039;SDS011;64736;50.462;4.850;2023-04-06T04:39:15;14.95;;;7.57;;
76039;SDS011;64736;50.462;4.850;2023-04-06T04:41:40;13.25;;;7.38;;
76039;SDS011;64736;50.462;4.850;2023-04-06T04:44:06;11.25;;;6.60;;
76039;SDS011;64736;50.462;4.850;2023-04-06T04:46:32;12.00;;;6.88;;
76039;SDS011;64736;50.462;4.850;2023-04-06T04:48:58;13.52;;;7.50;;
76039;SDS011;64736;50.462;4.850;2023-04-06T04:51:24;12.25;;;7.25;;
76039;SDS011;64736;50.462;4.850;2023-04-06T04:53:50;15.23;;;8.00;;
76039;SDS011;64736;50.462;4.850;2023-04-06T04:56:16;14.75;;;7.90;;
76039;SDS011;64736;50.462;4.850;2023-04-06T04:58:42;13.20;;;7.60;;
76039;SDS011;64736;50.462;4.850;2023-04-06T05:01:08;19.40;;;7.95;;
76039;SDS011;64736;50.462;4.850;2023-04-06T05:03:33;15.73;;;8.40;;
76039;SDS011;64736;50.462;4.850;2023-04-06T05:06:00;13.95;;;9.25;;
76039;SDS011;64736;50.462;4.850;2023-04-06T05:08:26;11.73;;;7.22;;
76039;SDS011;64736;50.462;4.850;2023-04-06T05:10:52;12.68;;;8.18;;
76039;SDS011;64736;50.462;4.850;2023-04-06T05:13:18;13.75;;;8.32;;
76039;SDS011;64736;50.462;4.850;2023-04-06T05:15:44;11.88;;;7.72;;
76039;SDS011;64736;50.462;4.850;2023-04-06T05:18:10;13.75;;;7.53;;
76039;SDS011;64736;50.462;4.850;2023-04-06T05:20:40;14.15;;;7.53;;
76039;SDS011;64736;50.462;4.850;2023-04-06T05:23:05;13.07;;;7.88;;
76039;SDS011;64736;50.462;4.850;2023-04-06T05:25:31;17.02;;;8.75;;
76039;SDS011;64736;50.462;4.850;2023-04-06T05:27:58;13.45;;;9.18;;
76039;SDS011;64736;50.462;4.850;2023-04-06T05:30:23;16.58;;;8.82;;
76039;SDS011;64736;50.462;4.850;2023-04-06T05:32:50;13.13;;;8.70;;
76039;SDS011;64736;50.462;4.850;2023-04-06T05:35:15;12.52;;;8.57;;
76039;SDS011;64736;50.462;4.850;2023-04-06T05:37:42;18.38;;;8.65;;
76039;SDS011;64736;50.462;4.850;2023-04-06T05:40:09;14.18;;;8.07;;
76039;SDS011;64736;50.462;4.850;2023-04-06T05:42:38;15.38;;;9.32;;
76039;SDS011;64736;50.462;4.850;2023-04-06T05:45:08;14.75;;;8.25;;
76039;SDS011;64736;50.462;4.850;2023-04-06T05:47:42;13.98;;;8.02;;
76039;SDS011;64736;50.462;4.850;2023-04-06T05:50:11;16.13;;;9.10;;
76039;SDS011;64736;50.462;4.850;2023-04-06T05:52:40;16.75;;;9.75;;
76039;SDS011;64736;50.462;4.850;2023-04-06T05:55:08;17.83;;;9.90;;
76039;SDS011;64736;50.462;4.850;2023-04-06T05:57:35;15.50;;;9.15;;
76039;SDS011;64736;50.462;4.850;2023-04-06T06:00:00;16.80;;;9.73;;
76039;SDS011;64736;50.462;4.850;2023-04-06T06:02:30;15.45;;;9.98;;
76039;SDS011;64736;50.462;4.850;2023-04-06T06:04:56;17.05;;;8.95;;
76039;SDS011;64736;50.462;4.850;2023-04-06T06:07:22;20.40;;;10.70;;
76039;SDS011;64736;50.462;4.850;2023-04-06T06:09:48;16.13;;;9.18;;
76039;SDS011;64736;50.462;4.850;2023-04-06T06:12:14;13.88;;;7.80;;
76039;SDS011;64736;50.462;4.850;2023-04-06T06:14:40;14.05;;;8.52;;
76039;SDS011;64736;50.462;4.850;2023-04-06T06:17:06;17.10;;;8.50;;
76039;SDS011;64736;50.462;4.850;2023-04-06T06:19:32;18.73;;;9.48;;
76039;SDS011;64736;50.462;4.850;2023-04-06T06:21:57;14.88;;;9.10;;
76039;SDS011;64736;50.462;4.850;2023-04-06T06:24:25;16.55;;;9.05;;
76039;SDS011;64736;50.462;4.850;2023-04-06T06:26:50;16.45;;;9.38;;
76039;SDS011;64736;50.462;4.850;2023-04-06T06:29:16;16.10;;;8.85;;
76039;SDS011;64736;50.462;4.850;2023-04-06T06:31:42;15.30;;;9.07;;
76039;SDS011;64736;50.462;4.850;2023-04-06T06:34:08;15.13;;;8.48;;
76039;SDS011;64736;50.462;4.850;2023-04-06T06:36:34;17.63;;;9.60;;
76039;SDS011;64736;50.462;4.850;2023-04-06T06:39:00;12.13;;;7.80;;
76039;SDS011;64736;50.462;4.850;2023-04-06T06:41:28;18.48;;;9.25;;
76039;SDS011;64736;50.462;4.850;2023-04-06T06:43:54;12.70;;;8.30;;
76039;SDS011;64736;50.462;4.850;2023-04-06T06:46:20;15.02;;;9.38;;
76039;SDS011;64736;50.462;4.850;2023-04-06T06:48:46;15.50;;;8.85;;
76039;SDS011;64736;50.462;4.850;2023-04-06T06:51:12;15.27;;;9.27;;
76039;SDS011;64736;50.462;4.850;2023-04-06T06:53:37;18.27;;;9.98;;
76039;SDS011;64736;50.462;4.850;2023-04-06T06:56:03;14.13;;;7.85;;
76039;SDS011;64736;50.462;4.850;2023-04-06T06:58:29;15.25;;;8.27;;
76039;SDS011;64736;50.462;4.850;2023-04-06T07:00:56;14.15;;;7.57;;
76039;SDS011;64736;50.462;4.850;2023-04-06T07:03:25;16.10;;;8.75;;
76039;SDS011;64736;50.462;4.850;2023-04-06T07:05:51;15.15;;;8.27;;
76039;SDS011;64736;50.462;4.850;2023-04-06T07:08:21;13.77;;;8.18;;
76039;SDS011;64736;50.462;4.850;2023-04-06T07:10:48;13.32;;;7.72;;
76039;SDS011;64736;50.462;4.850;2023-04-06T07:13:17;15.40;;;8.50;;
76039;SDS011;64736;50.462;4.850;2023-04-06T07:15:51;13.77;;;8.18;;
76039;SDS011;64736;50.462;4.850;2023-04-06T07:18:20;13.32;;;8.27;;
76039;SDS011;64736;50.462;4.850;2023-04-06T07:20:46;15.00;;;8.18;;
76039;SDS011;64736;50.462;4.850;2023-04-06T07:23:12;14.50;;;7.85;;
76039;SDS011;64736;50.462;4.850;2023-04-06T07:25:38;13.13;;;7.97;;
76039;SDS011;64736;50.462;4.850;2023-04-06T07:28:03;13.85;;;7.85;;
76039;SDS011;64736;50.462;4.850;2023-04-06T07:30:29;14.20;;;7.38;;
76039;SDS011;64736;50.462;4.850;2023-04-06T07:32:56;14.23;;;7.05;;
76039;SDS011;64736;50.462;4.850;2023-04-06T07:35:26;12.98;;;8.32;;
76039;SDS011;64736;50.462;4.850;2023-04-06T07:37:54;15.60;;;10.38;;
76039;SDS011;64736;50.462;4.850;2023-04-06T07:40:20;12.83;;;7.60;;
76039;SDS011;64736;50.462;4.850;2023-04-06T07:42:46;15.20;;;9.10;;
76039;SDS011;64736;50.462;4.850;2023-04-06T07:45:13;15.18;;;9.63;;
76039;SDS011;64736;50.462;4.850;2023-04-06T07:47:39;13.55;;;7.18;;
76039;SDS011;64736;50.462;4.850;2023-04-06T07:50:05;12.55;;;7.82;;
76039;SDS011;64736;50.462;4.850;2023-04-06T07:52:31;12.57;;;7.85;;
76039;SDS011;64736;50.462;4.850;2023-04-06T07:54:57;11.38;;;6.85;;
76039;SDS011;64736;50.462;4.850;2023-04-06T07:57:23;13.68;;;7.35;;
76039;SDS011;64736;50.462;4.850;2023-04-06T07:59:49;13.32;;;8.15;;
76039;SDS011;64736;50.462;4.850;2023-04-06T08:02:15;14.95;;;9.13;;
76039;SDS011;64736;50.462;4.850;2023-04-06T08:04:41;15.15;;;7.65;;
76039;SDS011;64736;50.462;4.850;2023-04-06T08:07:07;15.90;;;9.45;;
76039;SDS011;64736;50.462;4.850;2023-04-06T08:09:33;13.52;;;7.45;;
76039;SDS011;64736;50.462;4.850;2023-04-06T08:11:58;12.85;;;7.72;;
76039;SDS011;64736;50.462;4.850;2023-04-06T08:14:24;14.63;;;8.45;;
76039;SDS011;64736;50.462;4.850;2023-04-06T08:16:50;16.52;;;8.95;;
76039;SDS011;64736;50.462;4.850;2023-04-06T08:19:15;13.25;;;7.75;;
76039;SDS011;64736;50.462;4.850;2023-04-06T08:21:43;14.82;;;9.50;;
76039;SDS011;64736;50.462;4.850;2023-04-06T08:24:09;17.70;;;8.40;;
76039;SDS011;64736;50.462;4.850;2023-04-06T08:26:35;12.05;;;7.05;;
76039;SDS011;64736;50.462;4.850;2023-04-06T08:29:00;17.27;;;9.10;;
76039;SDS011;64736;50.462;4.850;2023-04-06T08:31:26;13.90;;;8.50;;
76039;SDS011;64736;50.462;4.850;2023-04-06T08:33:52;11.95;;;7.32;;
76039;SDS011;64736;50.462;4.850;2023-04-06T08:36:18;13.68;;;7.60;;
76039;SDS011;64736;50.462;4.850;2023-04-06T08:41:15;14.20;;;8.00;;
76039;SDS011;64736;50.462;4.850;2023-04-06T08:43:58;14.27;;;8.10;;
76039;SDS011;64736;50.462;4.850;2023-04-06T08:46:25;14.02;;;7.97;;
76039;SDS011;64736;50.462;4.850;2023-04-06T08:48:58;13.90;;;8.32;;
76039;SDS011;64736;50.462;4.850;2023-04-06T08:51:25;14.98;;;8.57;;
76039;SDS011;64736;50.462;4.850;2023-04-06T08:53:53;13.43;;;8.65;;
76039;SDS011;64736;50.462;4.850;2023-04-06T08:56:23;16.73;;;9.48;;
76039;SDS011;64736;50.462;4.850;2023-04-06T08:58:50;15.10;;;9.73;;
76039;SDS011;64736;50.462;4.850;2023-04-06T09:01:20;14.10;;;8.52;;
76039;SDS011;64736;50.462;4.850;2023-04-06T09:03:48;15.95;;;9.35;;
76039;SDS011;64736;50.462;4.850;2023-04-06T09:06:15;16.45;;;9.07;;
76039;SDS011;64736;50.462;4.850;2023-04-06T09:08:41;19.73;;;10.55;;
76039;SDS011;64736;50.462;4.850;2023-04-06T09:11:07;16.67;;;8.63;;
76039;SDS011;64736;50.462;4.850;2023-04-06T09:13:46;16.38;;;8.82;;
76039;SDS011;64736;50.462;4.850;2023-04-06T09:16:17;16.15;;;8.75;;
76039;SDS011;64736;50.462;4.850;2023-04-06T09:18:43;15.50;;;8.80;;
76039;SDS011;64736;50.462;4.850;2023-04-06T09:21:10;18.38;;;10.60;;
76039;SDS011;64736;50.462;4.850;2023-04-06T09:23:36;16.23;;;9.65;;
76039;SDS011;64736;50.462;4.850;2023-04-06T09:26:12;15.48;;;8.93;;
76039;SDS011;64736;50.462;4.850;2023-04-06T09:28:50;14.85;;;8.02;;
76039;SDS011;64736;50.462;4.850;2023-04-06T09:31:21;15.18;;;8.27;;
76039;SDS011;64736;50.462;4.850;2023-04-06T09:33:49;14.90;;;8.50;;
76039;SDS011;64736;50.462;4.850;2023-04-06T09:36:17;13.57;;;8.43;;
76039;SDS011;64736;50.462;4.850;2023-04-06T09:38:55;17.25;;;10.25;;
76039;SDS011;64736;50.462;4.850;2023-04-06T09:41:28;17.25;;;9.63;;
76039;SDS011;64736;50.462;4.850;2023-04-06T09:44:02;14.40;;;8.88;;
76039;SDS011;64736;50.462;4.850;2023-04-06T09:46:31;13.82;;;8.85;;
76039;SDS011;64736;50.462;4.850;2023-04-06T09:49:02;17.40;;;9.60;;
76039;SDS011;64736;50.462;4.850;2023-04-06T09:54:18;15.68;;;9.80;;
76039;SDS011;64736;50.462;4.850;2023-04-06T10:01:59;14.13;;;8.45;;
76039;SDS011;64736;50.462;4.850;2023-04-06T10:07:18;14.95;;;8.73;;
76039;SDS011;64736;50.462;4.850;2023-04-06T10:09:44;16.45;;;8.73;;
76039;SDS011;64736;50.462;4.850;2023-04-06T10:12:11;15.23;;;9.48;;
76039;SDS011;64736;50.462;4.850;2023-04-06T10:14:38;16.40;;;9.30;;
76039;SDS011;64736;50.462;4.850;2023-04-06T10:17:06;17.50;;;9.73;;
76039;SDS011;64736;50.462;4.850;2023-04-06T10:19:34;15.20;;;9.32;;
76039;SDS011;64736;50.462;4.850;2023-04-06T10:22:08;14.85;;;8.25;;
76039;SDS011;64736;50.462;4.850;2023-04-06T10:24:35;13.98;;;8.48;;
76039;SDS011;64736;50.462;4.850;2023-04-06T10:27:02;15.18;;;8.82;;
76039;SDS011;64736;50.462;4.850;2023-04-06T10:29:44;15.15;;;8.20;;
76039;SDS011;64736;50.462;4.850;2023-04-06T10:32:12;16.05;;;9.30;;
76039;SDS011;64736;50.462;4.850;2023-04-06T10:34:38;16.55;;;8.63;;
76039;SDS011;64736;50.462;4.850;2023-04-06T10:37:15;14.63;;;8.30;;
76039;SDS011;64736;50.462;4.850;2023-04-06T10:42:45;16.55;;;9.15;;
76039;SDS011;64736;50.462;4.850;2023-04-06T10:45:21;15.38;;;7.90;;
76039;SDS011;64736;50.462;4.850;2023-04-06T10:47:52;14.63;;;8.43;;
76039;SDS011;64736;50.462;4.850;2023-04-06T10:50:18;12.30;;;7.88;;
76039;SDS011;64736;50.462;4.850;2023-04-06T10:52:45;14.07;;;8.43;;
76039;SDS011;64736;50.462;4.850;2023-04-06T10:55:12;13.25;;;7.85;;
76039;SDS011;64736;50.462;4.850;2023-04-06T10:57:40;14.88;;;8.30;;
76039;SDS011;64736;50.462;4.850;2023-04-06T11:00:06;14.70;;;9.73;;
76039;SDS011;64736;50.462;4.850;2023-04-06T11:02:34;14.65;;;8.50;;
76039;SDS011;64736;50.462;4.850;2023-04-06T11:05:01;14.90;;;8.93;;
76039;SDS011;64736;50.462;4.850;2023-04-06T11:07:27;17.90;;;9.45;;
76039;SDS011;64736;50.462;4.850;2023-04-06T11:09:55;16.90;;;9.32;;
76039;SDS011;64736;50.462;4.850;2023-04-06T11:12:27;14.82;;;9.40;;
76039;SDS011;64736;50.462;4.850;2023-04-06T11:14:58;13.60;;;9.18;;
76039;SDS011;64736;50.462;4.850;2023-04-06T11:17:31;13.93;;;8.70;;
76039;SDS011;64736;50.462;4.850;2023-04-06T11:19:58;14.27;;;7.75;;
76039;SDS011;64736;50.462;4.850;2023-04-06T11:22:25;14.90;;;9.68;;
76039;SDS011;64736;50.462;4.850;2023-04-06T11:24:51;16.95;;;9.57;;
76039;SDS011;64736;50.462;4.850;2023-04-06T11:27:18;14.57;;;8.80;;
76039;SDS011;64736;50.462;4.850;2023-04-06T11:29:45;13.68;;;8.45;;
76039;SDS011;64736;50.462;4.850;2023-04-06T11:32:19;15.02;;;8.05;;
76039;SDS011;64736;50.462;4.850;2023-04-06T11:34:46;17.13;;;10.35;;
76039;SDS011;64736;50.462;4.850;2023-04-06T11:37:17;18.38;;;9.18;;
76039;SDS011;64736;50.462;4.850;2023-04-06T11:39:47;18.60;;;9.80;;
76039;SDS011;64736;50.462;4.850;2023-04-06T11:42:25;21.30;;;10.50;;
76039;SDS011;64736;50.462;4.850;2023-04-06T11:44:55;18.63;;;10.38;;
76039;SDS011;64736;50.462;4.850;2023-04-06T11:47:32;15.32;;;9.52;;
76039;SDS011;64736;50.462;4.850;2023-04-06T11:50:32;17.67;;;9.48;;
76039;SDS011;64736;50.462;4.850;2023-04-06T11:52:58;17.00;;;9.45;;
76039;SDS011;64736;50.462;4.850;2023-04-06T11:55:36;17.50;;;9.63;;
76039;SDS011;64736;50.462;4.850;2023-04-06T11:58:03;16.58;;;9.75;;
76039;SDS011;64736;50.462;4.850;2023-04-06T12:00:29;19.98;;;10.32;;
76039;SDS011;64736;50.462;4.850;2023-04-06T12:03:00;17.70;;;10.00;;
76039;SDS011;64736;50.462;4.850;2023-04-06T12:05:26;17.80;;;9.35;;
76039;SDS011;64736;50.462;4.850;2023-04-06T12:07:52;16.83;;;10.00;;
76039;SDS011;64736;50.462;4.850;2023-04-06T12:10:18;16.48;;;10.43;;
76039;SDS011;64736;50.462;4.850;2023-04-06T12:12:43;16.40;;;10.57;;
76039;SDS011;64736;50.462;4.850;2023-04-06T12:15:10;16.13;;;10.07;;
76039;SDS011;64736;50.462;4.850;2023-04-06T12:17:36;22.90;;;11.50;;
76039;SDS011;64736;50.462;4.850;2023-04-06T12:20:02;18.15;;;11.48;;
76039;SDS011;64736;50.462;4.850;2023-04-06T12:22:28;16.92;;;10.20;;
76039;SDS011;64736;50.462;4.850;2023-04-06T12:24:53;19.15;;;10.85;;
76039;SDS011;64736;50.462;4.850;2023-04-06T12:27:19;18.38;;;11.65;;
76039;SDS011;64736;50.462;4.850;2023-04-06T12:29:47;18.35;;;10.13;;
76039;SDS011;64736;50.462;4.850;2023-04-06T12:32:12;18.92;;;11.93;;
76039;SDS011;64736;50.462;4.850;2023-04-06T12:34:38;16.52;;;11.15;;
76039;SDS011;64736;50.462;4.850;2023-04-06T12:37:04;18.92;;;9.95;;
76039;SDS011;64736;50.462;4.850;2023-04-06T12:39:30;19.35;;;10.73;;
76039;SDS011;64736;50.462;4.850;2023-04-06T12:41:56;15.63;;;9.85;;
76039;SDS011;64736;50.462;4.850;2023-04-06T12:44:22;15.05;;;9.43;;
76039;SDS011;64736;50.462;4.850;2023-04-06T12:46:48;14.82;;;9.95;;
76039;SDS011;64736;50.462;4.850;2023-04-06T12:49:14;15.32;;;9.93;;
76039;SDS011;64736;50.462;4.850;2023-04-06T12:51:41;15.30;;;9.60;;
76039;SDS011;64736;50.462;4.850;2023-04-06T12:54:07;16.80;;;10.05;;
76039;SDS011;64736;50.462;4.850;2023-04-06T12:56:33;16.88;;;10.18;;
76039;SDS011;64736;50.462;4.850;2023-04-06T12:58:59;15.27;;;9.65;;
76039;SDS011;64736;50.462;4.850;2023-04-06T13:01:24;15.95;;;10.02;;
76039;SDS011;64736;50.462;4.850;2023-04-06T13:03:53;17.95;;;10.38;;
76039;SDS011;64736;50.462;4.850;2023-04-06T13:06:19;18.45;;;11.52;;
76039;SDS011;64736;50.462;4.850;2023-04-06T13:08:45;17.00;;;10.30;;
76039;SDS011;64736;50.462;4.850;2023-04-06T13:11:12;13.25;;;8.77;;
76039;SDS011;64736;50.462;4.850;2023-04-06T13:13:38;16.88;;;10.50;;
76039;SDS011;64736;50.462;4.850;2023-04-06T13:16:05;15.40;;;10.13;;
76039;SDS011;64736;50.462;4.850;2023-04-06T13:18:33;15.95;;;9.45;;
76039;SDS011;64736;50.462;4.850;2023-04-06T13:20:59;16.50;;;10.18;;
76039;SDS011;64736;50.462;4.850;2023-04-06T13:23:25;17.90;;;10.10;;
76039;SDS011;64736;50.462;4.850;2023-04-06T13:25:58;14.30;;;10.07;;
76039;SDS011;64736;50.462;4.850;2023-04-06T13:28:28;16.80;;;9.50;;
76039;SDS011;64736;50.462;4.850;2023-04-06T13:30:54;15.13;;;9.57;;
76039;SDS011;64736;50.462;4.850;2023-04-06T13:33:21;15.35;;;9.27;;
76039;SDS011;64736;50.462;4.850;2023-04-06T13:35:47;14.02;;;9.23;;
76039;SDS011;64736;50.462;4.850;2023-04-06T13:38:13;16.15;;;9.77;;
76039;SDS011;64736;50.462;4.850;2023-04-06T13:40:41;17.10;;;10.02;;
76039;SDS011;64736;50.462;4.850;2023-04-06T13:43:07;15.43;;;9.38;;
76039;SDS011;64736;50.462;4.850;2023-04-06T13:45:33;14.35;;;9.68;;
76039;SDS011;64736;50.462;4.850;2023-04-06T13:47:59;13.55;;;8.82;;
76039;SDS011;64736;50.462;4.850;2023-04-06T13:50:25;13.98;;;9.15;;
76039;SDS011;64736;50.462;4.850;2023-04-06T13:52:52;13.48;;;9.48;;
76039;SDS011;64736;50.462;4.850;2023-04-06T13:55:17;14.75;;;9.65;;
76039;SDS011;64736;50.462;4.850;2023-04-06T13:57:43;13.98;;;9.70;;
76039;SDS011;64736;50.462;4.850;2023-04-06T14:00:09;15.05;;;9.57;;
76039;SDS011;64736;50.462;4.850;2023-04-06T14:02:36;14.77;;;10.18;;
76039;SDS011;64736;50.462;4.850;2023-04-06T14:05:02;16.65;;;10.38;;
76039;SDS011;64736;50.462;4.850;2023-04-06T14:07:28;15.00;;;9.73;;
76039;SDS011;64736;50.462;4.850;2023-04-06T14:09:54;13.40;;;9.25;;
76039;SDS011;64736;50.462;4.850;2023-04-06T14:12:20;15.10;;;10.23;;
76039;SDS011;64736;50.462;4.850;2023-04-06T14:14:46;16.17;;;11.02;;
76039;SDS011;64736;50.462;4.850;2023-04-06T14:17:11;14.95;;;9.82;;
76039;SDS011;64736;50.462;4.850;2023-04-06T14:19:37;15.82;;;10.15;;
76039;SDS011;64736;50.462;4.850;2023-04-06T14:22:03;14.13;;;9.43;;
76039;SDS011;64736;50.462;4.850;2023-04-06T14:24:29;16.73;;;10.55;;
76039;SDS011;64736;50.462;4.850;2023-04-06T14:26:56;19.50;;;9.68;;
76039;SDS011;64736;50.462;4.850;2023-04-06T14:29:22;15.82;;;9.95;;
76039;SDS011;64736;50.462;4.850;2023-04-06T14:31:48;15.30;;;10.10;;
76039;SDS011;64736;50.462;4.850;2023-04-06T14:34:14;15.45;;;10.20;;
76039;SDS011;64736;50.462;4.850;2023-04-06T14:36:42;15.23;;;10.68;;
76039;SDS011;64736;50.462;4.850;2023-04-06T14:39:08;19.48;;;10.93;;
76039;SDS011;64736;50.462;4.850;2023-04-06T14:41:35;19.83;;;11.98;;
76039;SDS011;64736;50.462;4.850;2023-04-06T14:44:01;17.13;;;11.43;;
76039;SDS011;64736;50.462;4.850;2023-04-06T14:46:27;17.58;;;10.73;;